sensor_id;sensor_type;location;lat;lon;timestamp;P1;durP1;ratioP1;P2;durP2;ratioP2
47167;SDS011;32931;47.778;17.806;2023-12-14T00:01:15;183.15;;;43.25;;
47167;SDS011;32931;47.778;17.806;2023-12-14T00:03:41;174.18;;;44.17;;
47167;SDS011;32931;47.778;17.806;2023-12-14T00:06:12;112.97;;;40.80;;
47167;SDS011;32931;47.778;17.806;2023-12-14T00:08:39;131.50;;;40.83;;
47167;SDS011;32931;47.778;17.806;2023-12-14T00:11:06;115.28;;;40.08;;
47167;SDS011;32931;47.778;17.806;2023-12-14T00:13:33;128.70;;;41.88;;
47167;SDS011;32931;47.778;17.806;2023-12-14T00:16:00;110.57;;;40.03;;
47167;SDS011;32931;47.778;17.806;2023-12-14T00:18:26;345.05;;;48.70;;
47167;SDS011;32931;47.778;17.806;2023-12-14T00:20:52;134.70;;;40.70;;
47167;SDS011;32931;47.778;17.806;2023-12-14T00:23:19;294.80;;;46.53;;
47167;SDS011;32931;47.778;17.806;2023-12-14T00:25:46;114.25;;;38.70;;
47167;SDS011;32931;47.778;17.806;2023-12-14T00:28:12;112.85;;;39.40;;
47167;SDS011;32931;47.778;17.806;2023-12-14T00:30:39;194.70;;;42.28;;
47167;SDS011;32931;47.778;17.806;2023-12-14T00:33:05;158.63;;;43.60;;
47167;SDS011;32931;47.778;17.806;2023-12-14T00:35:31;151.20;;;42.58;;
47167;SDS011;32931;47.778;17.806;2023-12-14T00:37:57;130.65;;;44.08;;
47167;SDS011;32931;47.778;17.806;2023-12-14T00:40:23;110.50;;;44.08;;
47167;SDS011;32931;47.778;17.806;2023-12-14T00:42:50;120.93;;;44.10;;
47167;SDS011;32931;47.778;17.806;2023-12-14T00:45:17;146.95;;;47.22;;
47167;SDS011;32931;47.778;17.806;2023-12-14T00:47:43;108.22;;;44.55;;
47167;SDS011;32931;47.778;17.806;2023-12-14T00:50:09;104.00;;;43.38;;
47167;SDS011;32931;47.778;17.806;2023-12-14T00:52:35;92.88;;;43.65;;
47167;SDS011;32931;47.778;17.806;2023-12-14T00:55:01;109.68;;;46.40;;
47167;SDS011;32931;47.778;17.806;2023-12-14T00:57:28;98.07;;;45.10;;
47167;SDS011;32931;47.778;17.806;2023-12-14T00:59:54;97.78;;;45.58;;
47167;SDS011;32931;47.778;17.806;2023-12-14T01:02:20;90.95;;;43.40;;
47167;SDS011;32931;47.778;17.806;2023-12-14T01:04:46;86.60;;;43.20;;
47167;SDS011;32931;47.778;17.806;2023-12-14T01:07:12;87.80;;;43.17;;
47167;SDS011;32931;47.778;17.806;2023-12-14T01:09:38;77.78;;;41.40;;
47167;SDS011;32931;47.778;17.806;2023-12-14T01:12:04;87.80;;;42.78;;
47167;SDS011;32931;47.778;17.806;2023-12-14T01:14:30;90.22;;;42.22;;
47167;SDS011;32931;47.778;17.806;2023-12-14T01:16:57;100.95;;;43.70;;
47167;SDS011;32931;47.778;17.806;2023-12-14T01:19:23;101.38;;;42.97;;
47167;SDS011;32931;47.778;17.806;2023-12-14T01:21:51;96.50;;;44.75;;
47167;SDS011;32931;47.778;17.806;2023-12-14T01:24:17;100.97;;;45.60;;
47167;SDS011;32931;47.778;17.806;2023-12-14T01:26:43;89.35;;;43.38;;
47167;SDS011;32931;47.778;17.806;2023-12-14T01:29:09;99.53;;;45.42;;
47167;SDS011;32931;47.778;17.806;2023-12-14T01:31:36;106.00;;;45.85;;
47167;SDS011;32931;47.778;17.806;2023-12-14T01:34:02;84.45;;;43.20;;
47167;SDS011;32931;47.778;17.806;2023-12-14T01:36:29;92.45;;;43.28;;
47167;SDS011;32931;47.778;17.806;2023-12-14T01:38:55;86.63;;;42.03;;
47167;SDS011;32931;47.778;17.806;2023-12-14T01:41:21;90.43;;;42.58;;
47167;SDS011;32931;47.778;17.806;2023-12-14T01:43:47;83.32;;;41.42;;
47167;SDS011;32931;47.778;17.806;2023-12-14T01:46:13;76.07;;;39.35;;
47167;SDS011;32931;47.778;17.806;2023-12-14T01:48:40;81.22;;;41.53;;
47167;SDS011;32931;47.778;17.806;2023-12-14T01:51:06;84.80;;;40.88;;
47167;SDS011;32931;47.778;17.806;2023-12-14T01:53:33;74.55;;;38.22;;
47167;SDS011;32931;47.778;17.806;2023-12-14T01:55:59;76.35;;;38.40;;
47167;SDS011;32931;47.778;17.806;2023-12-14T01:58:25;70.20;;;37.40;;
47167;SDS011;32931;47.778;17.806;2023-12-14T02:01:04;69.72;;;37.92;;
47167;SDS011;32931;47.778;17.806;2023-12-14T02:03:31;80.38;;;40.22;;
47167;SDS011;32931;47.778;17.806;2023-12-14T02:05:57;73.57;;;37.45;;
47167;SDS011;32931;47.778;17.806;2023-12-14T02:08:27;82.63;;;40.15;;
47167;SDS011;32931;47.778;17.806;2023-12-14T02:10:54;76.95;;;39.25;;
47167;SDS011;32931;47.778;17.806;2023-12-14T02:13:20;76.47;;;38.78;;
47167;SDS011;32931;47.778;17.806;2023-12-14T02:15:47;86.05;;;41.55;;
47167;SDS011;32931;47.778;17.806;2023-12-14T02:18:13;83.00;;;41.40;;
47167;SDS011;32931;47.778;17.806;2023-12-14T02:20:39;77.43;;;38.45;;
47167;SDS011;32931;47.778;17.806;2023-12-14T02:23:05;78.13;;;39.70;;
47167;SDS011;32931;47.778;17.806;2023-12-14T02:25:31;84.10;;;40.60;;
47167;SDS011;32931;47.778;17.806;2023-12-14T02:27:57;78.43;;;39.70;;
47167;SDS011;32931;47.778;17.806;2023-12-14T02:30:23;86.20;;;40.95;;
47167;SDS011;32931;47.778;17.806;2023-12-14T02:32:50;79.50;;;38.72;;
47167;SDS011;32931;47.778;17.806;2023-12-14T02:35:16;64.95;;;35.55;;
47167;SDS011;32931;47.778;17.806;2023-12-14T02:37:43;66.85;;;36.30;;
47167;SDS011;32931;47.778;17.806;2023-12-14T02:40:10;64.53;;;35.95;;
47167;SDS011;32931;47.778;17.806;2023-12-14T02:42:36;70.75;;;34.92;;
47167;SDS011;32931;47.778;17.806;2023-12-14T02:45:03;74.30;;;36.03;;
47167;SDS011;32931;47.778;17.806;2023-12-14T02:47:29;62.60;;;34.38;;
47167;SDS011;32931;47.778;17.806;2023-12-14T02:49:55;66.30;;;33.85;;
47167;SDS011;32931;47.778;17.806;2023-12-14T02:52:22;63.30;;;34.50;;
47167;SDS011;32931;47.778;17.806;2023-12-14T02:54:48;64.00;;;34.05;;
47167;SDS011;32931;47.778;17.806;2023-12-14T02:57:14;61.25;;;34.08;;
47167;SDS011;32931;47.778;17.806;2023-12-14T02:59:40;62.72;;;33.90;;
47167;SDS011;32931;47.778;17.806;2023-12-14T03:02:06;63.78;;;32.67;;
47167;SDS011;32931;47.778;17.806;2023-12-14T03:04:32;74.68;;;35.65;;
47167;SDS011;32931;47.778;17.806;2023-12-14T03:06:58;59.17;;;33.40;;
47167;SDS011;32931;47.778;17.806;2023-12-14T03:09:28;64.75;;;33.25;;
47167;SDS011;32931;47.778;17.806;2023-12-14T03:11:54;66.75;;;32.75;;
47167;SDS011;32931;47.778;17.806;2023-12-14T03:14:21;64.82;;;34.35;;
47167;SDS011;32931;47.778;17.806;2023-12-14T03:16:47;67.93;;;33.83;;
47167;SDS011;32931;47.778;17.806;2023-12-14T03:19:14;58.80;;;31.90;;
47167;SDS011;32931;47.778;17.806;2023-12-14T03:21:41;64.10;;;33.50;;
47167;SDS011;32931;47.778;17.806;2023-12-14T03:24:08;63.35;;;33.88;;
47167;SDS011;32931;47.778;17.806;2023-12-14T03:26:35;61.90;;;33.65;;
47167;SDS011;32931;47.778;17.806;2023-12-14T03:29:01;59.83;;;31.95;;
47167;SDS011;32931;47.778;17.806;2023-12-14T03:31:27;60.80;;;31.75;;
47167;SDS011;32931;47.778;17.806;2023-12-14T03:33:53;67.28;;;33.15;;
47167;SDS011;32931;47.778;17.806;2023-12-14T03:36:19;56.95;;;31.33;;
47167;SDS011;32931;47.778;17.806;2023-12-14T03:38:48;59.20;;;32.33;;
47167;SDS011;32931;47.778;17.806;2023-12-14T03:41:14;62.95;;;32.45;;
47167;SDS011;32931;47.778;17.806;2023-12-14T03:43:40;61.85;;;32.20;;
47167;SDS011;32931;47.778;17.806;2023-12-14T03:46:06;60.92;;;32.78;;
47167;SDS011;32931;47.778;17.806;2023-12-14T03:48:32;62.05;;;32.40;;
47167;SDS011;32931;47.778;17.806;2023-12-14T03:51:02;57.33;;;30.60;;
47167;SDS011;32931;47.778;17.806;2023-12-14T03:53:29;59.50;;;32.47;;
47167;SDS011;32931;47.778;17.806;2023-12-14T03:55:55;55.97;;;30.52;;
47167;SDS011;32931;47.778;17.806;2023-12-14T03:58:22;47.78;;;29.40;;
47167;SDS011;32931;47.778;17.806;2023-12-14T04:00:48;56.03;;;29.77;;
47167;SDS011;32931;47.778;17.806;2023-12-14T04:03:14;50.83;;;28.02;;
47167;SDS011;32931;47.778;17.806;2023-12-14T04:05:41;53.58;;;29.83;;
47167;SDS011;32931;47.778;17.806;2023-12-14T04:08:07;56.00;;;30.30;;
47167;SDS011;32931;47.778;17.806;2023-12-14T04:10:33;52.95;;;28.77;;
47167;SDS011;32931;47.778;17.806;2023-12-14T04:12:59;53.67;;;29.75;;
47167;SDS011;32931;47.778;17.806;2023-12-14T04:15:25;57.22;;;30.40;;
47167;SDS011;32931;47.778;17.806;2023-12-14T04:17:51;62.58;;;31.65;;
47167;SDS011;32931;47.778;17.806;2023-12-14T04:20:17;54.08;;;30.30;;
47167;SDS011;32931;47.778;17.806;2023-12-14T04:22:43;58.83;;;31.52;;
47167;SDS011;32931;47.778;17.806;2023-12-14T04:25:10;62.00;;;32.42;;
47167;SDS011;32931;47.778;17.806;2023-12-14T04:27:36;60.03;;;32.10;;
47167;SDS011;32931;47.778;17.806;2023-12-14T04:30:03;60.00;;;32.40;;
47167;SDS011;32931;47.778;17.806;2023-12-14T04:32:30;57.33;;;30.83;;
47167;SDS011;32931;47.778;17.806;2023-12-14T04:34:56;52.67;;;29.88;;
47167;SDS011;32931;47.778;17.806;2023-12-14T04:37:22;55.00;;;30.13;;
47167;SDS011;32931;47.778;17.806;2023-12-14T04:39:48;57.25;;;31.98;;
47167;SDS011;32931;47.778;17.806;2023-12-14T04:42:14;68.22;;;32.95;;
47167;SDS011;32931;47.778;17.806;2023-12-14T04:44:40;61.42;;;31.90;;
47167;SDS011;32931;47.778;17.806;2023-12-14T04:47:06;59.35;;;31.77;;
47167;SDS011;32931;47.778;17.806;2023-12-14T04:49:33;57.55;;;29.83;;
47167;SDS011;32931;47.778;17.806;2023-12-14T04:51:59;51.17;;;29.60;;
47167;SDS011;32931;47.778;17.806;2023-12-14T04:54:25;52.53;;;29.23;;
47167;SDS011;32931;47.778;17.806;2023-12-14T04:56:51;54.90;;;29.33;;
47167;SDS011;32931;47.778;17.806;2023-12-14T04:59:18;54.13;;;30.83;;
47167;SDS011;32931;47.778;17.806;2023-12-14T05:01:44;58.97;;;29.90;;
47167;SDS011;32931;47.778;17.806;2023-12-14T05:04:10;56.38;;;29.45;;
47167;SDS011;32931;47.778;17.806;2023-12-14T05:06:37;52.85;;;28.85;;
47167;SDS011;32931;47.778;17.806;2023-12-14T05:09:04;62.20;;;30.02;;
47167;SDS011;32931;47.778;17.806;2023-12-14T05:11:31;57.63;;;29.75;;
47167;SDS011;32931;47.778;17.806;2023-12-14T05:13:58;51.85;;;28.10;;
47167;SDS011;32931;47.778;17.806;2023-12-14T05:16:24;56.47;;;30.08;;
47167;SDS011;32931;47.778;17.806;2023-12-14T05:18:52;63.35;;;30.27;;
47167;SDS011;32931;47.778;17.806;2023-12-14T05:21:19;58.95;;;32.00;;
47167;SDS011;32931;47.778;17.806;2023-12-14T05:23:45;61.50;;;30.50;;
47167;SDS011;32931;47.778;17.806;2023-12-14T05:26:11;64.18;;;33.00;;
47167;SDS011;32931;47.778;17.806;2023-12-14T05:28:37;56.55;;;30.05;;
47167;SDS011;32931;47.778;17.806;2023-12-14T05:31:03;62.95;;;32.08;;
47167;SDS011;32931;47.778;17.806;2023-12-14T05:33:30;63.47;;;32.00;;
47167;SDS011;32931;47.778;17.806;2023-12-14T05:35:56;65.50;;;32.78;;
47167;SDS011;32931;47.778;17.806;2023-12-14T05:38:23;56.63;;;30.92;;
47167;SDS011;32931;47.778;17.806;2023-12-14T05:40:49;60.10;;;29.95;;
47167;SDS011;32931;47.778;17.806;2023-12-14T05:43:15;69.43;;;34.67;;
47167;SDS011;32931;47.778;17.806;2023-12-14T05:45:41;69.55;;;34.28;;
47167;SDS011;32931;47.778;17.806;2023-12-14T05:48:08;63.60;;;32.83;;
47167;SDS011;32931;47.778;17.806;2023-12-14T05:50:34;66.38;;;34.47;;
47167;SDS011;32931;47.778;17.806;2023-12-14T05:53:00;61.65;;;30.45;;
47167;SDS011;32931;47.778;17.806;2023-12-14T05:55:26;60.05;;;30.50;;
47167;SDS011;32931;47.778;17.806;2023-12-14T05:57:52;57.85;;;30.25;;
47167;SDS011;32931;47.778;17.806;2023-12-14T06:00:19;57.85;;;30.45;;
47167;SDS011;32931;47.778;17.806;2023-12-14T06:02:45;60.15;;;29.90;;
47167;SDS011;32931;47.778;17.806;2023-12-14T06:05:12;59.15;;;29.83;;
47167;SDS011;32931;47.778;17.806;2023-12-14T06:07:38;54.53;;;29.52;;
47167;SDS011;32931;47.778;17.806;2023-12-14T06:10:04;57.25;;;30.17;;
47167;SDS011;32931;47.778;17.806;2023-12-14T06:12:31;54.80;;;29.92;;
47167;SDS011;32931;47.778;17.806;2023-12-14T06:14:57;56.55;;;30.45;;
47167;SDS011;32931;47.778;17.806;2023-12-14T06:17:23;46.80;;;27.58;;
47167;SDS011;32931;47.778;17.806;2023-12-14T06:19:49;55.85;;;29.67;;
47167;SDS011;32931;47.778;17.806;2023-12-14T06:22:15;54.10;;;29.45;;
47167;SDS011;32931;47.778;17.806;2023-12-14T06:24:41;53.83;;;28.73;;
47167;SDS011;32931;47.778;17.806;2023-12-14T06:27:07;54.88;;;28.70;;
47167;SDS011;32931;47.778;17.806;2023-12-14T06:29:33;57.28;;;29.35;;
47167;SDS011;32931;47.778;17.806;2023-12-14T06:32:00;59.05;;;32.33;;
47167;SDS011;32931;47.778;17.806;2023-12-14T06:34:26;60.40;;;32.83;;
47167;SDS011;32931;47.778;17.806;2023-12-14T06:36:52;60.45;;;32.55;;
47167;SDS011;32931;47.778;17.806;2023-12-14T06:39:18;61.28;;;34.28;;
47167;SDS011;32931;47.778;17.806;2023-12-14T06:41:44;68.97;;;34.92;;
47167;SDS011;32931;47.778;17.806;2023-12-14T06:44:10;62.83;;;34.30;;
47167;SDS011;32931;47.778;17.806;2023-12-14T06:46:36;59.70;;;32.40;;
47167;SDS011;32931;47.778;17.806;2023-12-14T06:49:02;53.78;;;29.92;;
47167;SDS011;32931;47.778;17.806;2023-12-14T06:51:28;54.67;;;31.77;;
47167;SDS011;32931;47.778;17.806;2023-12-14T06:53:54;54.58;;;30.73;;
47167;SDS011;32931;47.778;17.806;2023-12-14T06:56:21;56.75;;;31.48;;
47167;SDS011;32931;47.778;17.806;2023-12-14T06:58:47;49.65;;;30.00;;
47167;SDS011;32931;47.778;17.806;2023-12-14T07:01:15;54.42;;;31.40;;
47167;SDS011;32931;47.778;17.806;2023-12-14T07:03:43;45.13;;;29.98;;
47167;SDS011;32931;47.778;17.806;2023-12-14T07:06:13;55.28;;;30.50;;
47167;SDS011;32931;47.778;17.806;2023-12-14T07:08:40;50.33;;;30.70;;
47167;SDS011;32931;47.778;17.806;2023-12-14T07:11:07;55.58;;;33.15;;
47167;SDS011;32931;47.778;17.806;2023-12-14T07:13:34;56.28;;;32.47;;
47167;SDS011;32931;47.778;17.806;2023-12-14T07:16:10;53.80;;;31.55;;
47167;SDS011;32931;47.778;17.806;2023-12-14T07:18:37;66.47;;;35.97;;
47167;SDS011;32931;47.778;17.806;2023-12-14T07:21:04;55.83;;;33.72;;
47167;SDS011;32931;47.778;17.806;2023-12-14T07:23:31;60.05;;;33.80;;
47167;SDS011;32931;47.778;17.806;2023-12-14T07:25:57;53.55;;;33.72;;
47167;SDS011;32931;47.778;17.806;2023-12-14T07:28:23;61.63;;;34.72;;
47167;SDS011;32931;47.778;17.806;2023-12-14T07:30:50;58.08;;;33.83;;
47167;SDS011;32931;47.778;17.806;2023-12-14T07:33:16;56.47;;;33.60;;
47167;SDS011;32931;47.778;17.806;2023-12-14T07:35:42;60.72;;;36.72;;
47167;SDS011;32931;47.778;17.806;2023-12-14T07:38:11;59.58;;;36.20;;
47167;SDS011;32931;47.778;17.806;2023-12-14T07:40:38;61.22;;;36.55;;
47167;SDS011;32931;47.778;17.806;2023-12-14T07:43:06;62.53;;;37.38;;
47167;SDS011;32931;47.778;17.806;2023-12-14T07:45:32;61.10;;;36.63;;
47167;SDS011;32931;47.778;17.806;2023-12-14T07:47:59;65.97;;;38.38;;
47167;SDS011;32931;47.778;17.806;2023-12-14T07:50:26;64.25;;;37.00;;
47167;SDS011;32931;47.778;17.806;2023-12-14T07:52:52;61.60;;;37.83;;
47167;SDS011;32931;47.778;17.806;2023-12-14T07:55:19;62.30;;;38.08;;
47167;SDS011;32931;47.778;17.806;2023-12-14T07:57:45;60.22;;;36.53;;
47167;SDS011;32931;47.778;17.806;2023-12-14T08:00:12;59.75;;;36.95;;
47167;SDS011;32931;47.778;17.806;2023-12-14T08:02:38;56.20;;;36.63;;
47167;SDS011;32931;47.778;17.806;2023-12-14T08:05:05;63.00;;;38.33;;
47167;SDS011;32931;47.778;17.806;2023-12-14T08:07:31;57.53;;;37.10;;
47167;SDS011;32931;47.778;17.806;2023-12-14T08:09:58;61.85;;;37.28;;
47167;SDS011;32931;47.778;17.806;2023-12-14T08:12:24;60.83;;;37.40;;
47167;SDS011;32931;47.778;17.806;2023-12-14T08:14:51;65.57;;;38.22;;
47167;SDS011;32931;47.778;17.806;2023-12-14T08:17:17;60.45;;;39.47;;
47167;SDS011;32931;47.778;17.806;2023-12-14T08:19:43;64.03;;;38.53;;
47167;SDS011;32931;47.778;17.806;2023-12-14T08:22:10;65.85;;;38.17;;
47167;SDS011;32931;47.778;17.806;2023-12-14T08:24:41;59.60;;;37.58;;
47167;SDS011;32931;47.778;17.806;2023-12-14T08:27:07;64.03;;;39.13;;
47167;SDS011;32931;47.778;17.806;2023-12-14T08:29:33;59.40;;;37.80;;
47167;SDS011;32931;47.778;17.806;2023-12-14T08:31:59;63.63;;;38.33;;
47167;SDS011;32931;47.778;17.806;2023-12-14T08:34:26;66.50;;;39.35;;
47167;SDS011;32931;47.778;17.806;2023-12-14T08:36:53;58.45;;;38.22;;
47167;SDS011;32931;47.778;17.806;2023-12-14T08:39:19;61.75;;;38.15;;
47167;SDS011;32931;47.778;17.806;2023-12-14T08:41:46;56.17;;;35.75;;
47167;SDS011;32931;47.778;17.806;2023-12-14T08:44:12;55.45;;;35.60;;
47167;SDS011;32931;47.778;17.806;2023-12-14T08:46:43;58.10;;;35.97;;
47167;SDS011;32931;47.778;17.806;2023-12-14T08:49:11;56.70;;;35.95;;
47167;SDS011;32931;47.778;17.806;2023-12-14T08:51:38;57.10;;;36.20;;
47167;SDS011;32931;47.778;17.806;2023-12-14T08:54:05;57.88;;;36.10;;
47167;SDS011;32931;47.778;17.806;2023-12-14T08:56:31;55.75;;;36.30;;
47167;SDS011;32931;47.778;17.806;2023-12-14T08:58:58;56.55;;;35.58;;
47167;SDS011;32931;47.778;17.806;2023-12-14T09:01:24;55.95;;;35.90;;
47167;SDS011;32931;47.778;17.806;2023-12-14T09:03:51;58.30;;;34.65;;
47167;SDS011;32931;47.778;17.806;2023-12-14T09:06:17;53.35;;;33.95;;
47167;SDS011;32931;47.778;17.806;2023-12-14T09:08:44;53.17;;;33.70;;
47167;SDS011;32931;47.778;17.806;2023-12-14T09:11:11;51.33;;;33.72;;
47167;SDS011;32931;47.778;17.806;2023-12-14T09:13:37;52.90;;;33.65;;
47167;SDS011;32931;47.778;17.806;2023-12-14T09:16:04;57.45;;;34.20;;
47167;SDS011;32931;47.778;17.806;2023-12-14T09:18:30;54.40;;;33.80;;
47167;SDS011;32931;47.778;17.806;2023-12-14T09:20:56;56.72;;;34.22;;
47167;SDS011;32931;47.778;17.806;2023-12-14T09:23:22;54.35;;;33.38;;
47167;SDS011;32931;47.778;17.806;2023-12-14T09:25:48;51.55;;;34.15;;
47167;SDS011;32931;47.778;17.806;2023-12-14T09:28:15;50.55;;;33.22;;
47167;SDS011;32931;47.778;17.806;2023-12-14T09:30:41;52.65;;;32.97;;
47167;SDS011;32931;47.778;17.806;2023-12-14T09:33:07;53.97;;;34.20;;
47167;SDS011;32931;47.778;17.806;2023-12-14T09:35:34;54.25;;;33.22;;
47167;SDS011;32931;47.778;17.806;2023-12-14T09:38:06;52.63;;;33.72;;
47167;SDS011;32931;47.778;17.806;2023-12-14T09:40:33;55.25;;;32.38;;
47167;SDS011;32931;47.778;17.806;2023-12-14T09:43:00;49.28;;;33.63;;
47167;SDS011;32931;47.778;17.806;2023-12-14T09:45:29;50.92;;;31.85;;
47167;SDS011;32931;47.778;17.806;2023-12-14T09:47:56;52.35;;;31.90;;
47167;SDS011;32931;47.778;17.806;2023-12-14T09:50:23;54.67;;;33.80;;
47167;SDS011;32931;47.778;17.806;2023-12-14T09:52:50;52.67;;;33.15;;
47167;SDS011;32931;47.778;17.806;2023-12-14T09:55:16;49.90;;;31.60;;
47167;SDS011;32931;47.778;17.806;2023-12-14T09:57:43;48.60;;;31.58;;
47167;SDS011;32931;47.778;17.806;2023-12-14T10:00:09;51.10;;;33.05;;
47167;SDS011;32931;47.778;17.806;2023-12-14T10:02:36;47.78;;;30.98;;
47167;SDS011;32931;47.778;17.806;2023-12-14T10:05:03;50.20;;;31.20;;
47167;SDS011;32931;47.778;17.806;2023-12-14T10:07:41;49.07;;;31.90;;
47167;SDS011;32931;47.778;17.806;2023-12-14T10:10:12;49.33;;;31.52;;
47167;SDS011;32931;47.778;17.806;2023-12-14T10:12:52;47.88;;;30.80;;
47167;SDS011;32931;47.778;17.806;2023-12-14T10:15:21;52.35;;;32.22;;
47167;SDS011;32931;47.778;17.806;2023-12-14T10:17:52;46.58;;;29.33;;
47167;SDS011;32931;47.778;17.806;2023-12-14T10:20:20;47.97;;;29.17;;
47167;SDS011;32931;47.778;17.806;2023-12-14T10:22:52;47.15;;;29.42;;
47167;SDS011;32931;47.778;17.806;2023-12-14T10:25:18;47.47;;;29.50;;
47167;SDS011;32931;47.778;17.806;2023-12-14T10:27:48;46.60;;;30.88;;
47167;SDS011;32931;47.778;17.806;2023-12-14T10:30:16;48.75;;;31.38;;
47167;SDS011;32931;47.778;17.806;2023-12-14T10:32:42;45.58;;;30.48;;
47167;SDS011;32931;47.778;17.806;2023-12-14T10:35:09;46.53;;;31.20;;
47167;SDS011;32931;47.778;17.806;2023-12-14T10:37:37;49.92;;;31.77;;
47167;SDS011;32931;47.778;17.806;2023-12-14T10:40:05;54.10;;;31.52;;
47167;SDS011;32931;47.778;17.806;2023-12-14T10:42:36;48.25;;;31.88;;
47167;SDS011;32931;47.778;17.806;2023-12-14T10:45:03;50.60;;;32.45;;
47167;SDS011;32931;47.778;17.806;2023-12-14T10:47:30;53.33;;;33.88;;
47167;SDS011;32931;47.778;17.806;2023-12-14T10:49:56;50.45;;;30.63;;
47167;SDS011;32931;47.778;17.806;2023-12-14T10:52:24;51.22;;;31.05;;
47167;SDS011;32931;47.778;17.806;2023-12-14T10:54:52;47.75;;;30.58;;
47167;SDS011;32931;47.778;17.806;2023-12-14T10:57:23;43.85;;;29.77;;
47167;SDS011;32931;47.778;17.806;2023-12-14T10:59:50;51.20;;;31.58;;
47167;SDS011;32931;47.778;17.806;2023-12-14T11:02:25;45.28;;;29.85;;
47167;SDS011;32931;47.778;17.806;2023-12-14T11:04:59;44.35;;;28.27;;
47167;SDS011;32931;47.778;17.806;2023-12-14T11:07:49;43.67;;;27.42;;
47167;SDS011;32931;47.778;17.806;2023-12-14T11:10:22;38.50;;;25.42;;
47167;SDS011;32931;47.778;17.806;2023-12-14T11:12:52;39.47;;;25.65;;
47167;SDS011;32931;47.778;17.806;2023-12-14T11:15:34;42.45;;;25.65;;
47167;SDS011;32931;47.778;17.806;2023-12-14T11:20:54;39.47;;;24.42;;
47167;SDS011;32931;47.778;17.806;2023-12-14T11:25:54;36.22;;;23.10;;
47167;SDS011;32931;47.778;17.806;2023-12-14T11:28:32;35.55;;;22.85;;
47167;SDS011;32931;47.778;17.806;2023-12-14T11:30:59;35.75;;;23.95;;
47167;SDS011;32931;47.778;17.806;2023-12-14T11:33:27;34.17;;;23.08;;
47167;SDS011;32931;47.778;17.806;2023-12-14T11:35:54;36.00;;;23.73;;
47167;SDS011;32931;47.778;17.806;2023-12-14T11:38:22;40.20;;;23.30;;
47167;SDS011;32931;47.778;17.806;2023-12-14T11:40:49;34.17;;;22.08;;
47167;SDS011;32931;47.778;17.806;2023-12-14T11:43:15;35.75;;;21.92;;
47167;SDS011;32931;47.778;17.806;2023-12-14T11:45:42;36.92;;;22.55;;
47167;SDS011;32931;47.778;17.806;2023-12-14T11:48:09;35.45;;;22.25;;
47167;SDS011;32931;47.778;17.806;2023-12-14T11:50:37;32.30;;;20.92;;
47167;SDS011;32931;47.778;17.806;2023-12-14T11:53:05;31.23;;;20.65;;
47167;SDS011;32931;47.778;17.806;2023-12-14T11:55:32;36.45;;;23.08;;
47167;SDS011;32931;47.778;17.806;2023-12-14T11:58:00;33.25;;;20.85;;
47167;SDS011;32931;47.778;17.806;2023-12-14T12:00:27;30.45;;;20.88;;
47167;SDS011;32931;47.778;17.806;2023-12-14T12:03:11;33.50;;;20.45;;
47167;SDS011;32931;47.778;17.806;2023-12-14T12:05:46;31.67;;;20.58;;
47167;SDS011;32931;47.778;17.806;2023-12-14T12:08:14;29.13;;;19.48;;
47167;SDS011;32931;47.778;17.806;2023-12-14T12:10:44;28.17;;;18.95;;
47167;SDS011;32931;47.778;17.806;2023-12-14T12:13:13;25.27;;;17.10;;
47167;SDS011;32931;47.778;17.806;2023-12-14T12:15:40;25.40;;;17.80;;
47167;SDS011;32931;47.778;17.806;2023-12-14T12:18:07;26.15;;;17.70;;
47167;SDS011;32931;47.778;17.806;2023-12-14T12:20:38;29.40;;;19.67;;
47167;SDS011;32931;47.778;17.806;2023-12-14T12:23:04;25.73;;;17.83;;
47167;SDS011;32931;47.778;17.806;2023-12-14T12:25:31;28.58;;;18.83;;
47167;SDS011;32931;47.778;17.806;2023-12-14T12:27:58;29.25;;;19.20;;
47167;SDS011;32931;47.778;17.806;2023-12-14T12:30:25;26.98;;;18.95;;
47167;SDS011;32931;47.778;17.806;2023-12-14T12:32:52;28.38;;;18.33;;
47167;SDS011;32931;47.778;17.806;2023-12-14T12:35:18;27.35;;;19.30;;
47167;SDS011;32931;47.778;17.806;2023-12-14T12:37:45;28.48;;;18.05;;
47167;SDS011;32931;47.778;17.806;2023-12-14T12:40:11;28.20;;;18.90;;
47167;SDS011;32931;47.778;17.806;2023-12-14T12:42:37;28.90;;;18.45;;
47167;SDS011;32931;47.778;17.806;2023-12-14T12:45:04;29.65;;;19.80;;
47167;SDS011;32931;47.778;17.806;2023-12-14T12:47:31;25.58;;;18.02;;
47167;SDS011;32931;47.778;17.806;2023-12-14T12:49:57;29.40;;;18.05;;
47167;SDS011;32931;47.778;17.806;2023-12-14T12:52:23;30.15;;;19.00;;
47167;SDS011;32931;47.778;17.806;2023-12-14T12:54:49;31.55;;;18.90;;
47167;SDS011;32931;47.778;17.806;2023-12-14T12:57:15;27.13;;;19.10;;
47167;SDS011;32931;47.778;17.806;2023-12-14T12:59:41;26.33;;;18.08;;
47167;SDS011;32931;47.778;17.806;2023-12-14T13:02:07;27.95;;;19.05;;
47167;SDS011;32931;47.778;17.806;2023-12-14T13:04:33;39.85;;;20.77;;
47167;SDS011;32931;47.778;17.806;2023-12-14T13:07:00;35.20;;;19.50;;
47167;SDS011;32931;47.778;17.806;2023-12-14T13:09:29;28.42;;;18.88;;
47167;SDS011;32931;47.778;17.806;2023-12-14T13:11:55;28.65;;;18.13;;
47167;SDS011;32931;47.778;17.806;2023-12-14T13:14:21;28.13;;;17.60;;
47167;SDS011;32931;47.778;17.806;2023-12-14T13:16:47;27.25;;;16.30;;
47167;SDS011;32931;47.778;17.806;2023-12-14T13:19:15;21.38;;;14.70;;
47167;SDS011;32931;47.778;17.806;2023-12-14T13:21:41;23.02;;;15.50;;
47167;SDS011;32931;47.778;17.806;2023-12-14T13:24:07;22.05;;;14.52;;
47167;SDS011;32931;47.778;17.806;2023-12-14T13:26:33;20.05;;;14.38;;
47167;SDS011;32931;47.778;17.806;2023-12-14T13:28:59;21.17;;;14.40;;
47167;SDS011;32931;47.778;17.806;2023-12-14T13:31:26;21.48;;;14.93;;
47167;SDS011;32931;47.778;17.806;2023-12-14T13:33:52;23.73;;;15.35;;
47167;SDS011;32931;47.778;17.806;2023-12-14T13:36:19;25.98;;;16.67;;
47167;SDS011;32931;47.778;17.806;2023-12-14T13:38:45;21.95;;;15.25;;
47167;SDS011;32931;47.778;17.806;2023-12-14T13:41:11;22.95;;;15.73;;
47167;SDS011;32931;47.778;17.806;2023-12-14T13:43:37;22.10;;;15.38;;
47167;SDS011;32931;47.778;17.806;2023-12-14T13:46:03;24.52;;;16.17;;
47167;SDS011;32931;47.778;17.806;2023-12-14T13:48:29;22.60;;;16.30;;
47167;SDS011;32931;47.778;17.806;2023-12-14T13:50:56;20.98;;;14.57;;
47167;SDS011;32931;47.778;17.806;2023-12-14T13:53:22;22.27;;;15.50;;
47167;SDS011;32931;47.778;17.806;2023-12-14T13:55:50;23.90;;;15.75;;
47167;SDS011;32931;47.778;17.806;2023-12-14T13:58:17;24.92;;;16.42;;
47167;SDS011;32931;47.778;17.806;2023-12-14T14:00:43;24.17;;;16.08;;
47167;SDS011;32931;47.778;17.806;2023-12-14T14:03:09;23.20;;;16.65;;
47167;SDS011;32931;47.778;17.806;2023-12-14T14:05:36;27.33;;;16.42;;
47167;SDS011;32931;47.778;17.806;2023-12-14T14:08:02;23.27;;;15.70;;
47167;SDS011;32931;47.778;17.806;2023-12-14T14:10:29;22.73;;;15.32;;
47167;SDS011;32931;47.778;17.806;2023-12-14T14:12:55;24.90;;;16.33;;